Saint Bonnet de Bellac- Haute Vienne - France
Donnes mto: lundi, 06/02/2012
Date Horaire Temp. E. Hum. E. P.atmo. Pluie Vent Direction Direction Ensoleilleme Solaire P. de rose Temp au vent Rafales
06/02/2012 00:00 -9,7 C 81 % 1028,7 hPa 0,0 mm 0,0 km/h (0 Bft) N-NE 22 0 min 0 W/m -12,3 C -9,7 C 0,0 km/h (0 Bft)
06/02/2012 00:10 -9,9 C 81 % 1028,6 hPa 0,0 mm 0,0 km/h (0 Bft) N-NE 22 0 min 0 W/m -12,5 C -9,9 C 0,0 km/h (0 Bft)
06/02/2012 00:20 -10,1 C 82 % 1028,8 hPa 0,0 mm 0,0 km/h (0 Bft) N-NE 22 0 min 0 W/m -12,6 C -10,1 C 0,0 km/h (0 Bft)
06/02/2012 00:30 -10,1 C 82 % 1028,9 hPa 0,0 mm 1,4 km/h (1 Bft) N-NE 22 0 min 0 W/m -12,6 C -10,1 C 1,4 km/h (1 Bft)
06/02/2012 00:40 -10,2 C 82 % 1029,0 hPa 0,0 mm 0,4 km/h (0 Bft) N 360 0 min 0 W/m -12,7 C -10,2 C 3,6 km/h (1 Bft)
06/02/2012 00:50 -10,1 C 83 % 1028,9 hPa 0,0 mm 0,0 km/h (0 Bft) N 360 0 min 0 W/m -12,4 C -10,1 C 0,0 km/h (0 Bft)
06/02/2012 01:00 -10,2 C 83 % 1028,9 hPa 0,0 mm 0,0 km/h (0 Bft) N 360 0 min 0 W/m -12,5 C -10,2 C 0,0 km/h (0 Bft)
06/02/2012 01:10 -10,3 C 84 % 1029,0 hPa 0,0 mm 0,4 km/h (0 Bft) N 360 0 min 0 W/m -12,5 C -10,3 C 0,4 km/h (0 Bft)
06/02/2012 01:20 -10,2 C 84 % 1029,0 hPa 0,0 mm 0,0 km/h (0 Bft) N-NE 22 0 min 0 W/m -12,4 C -10,2 C 0,0 km/h (0 Bft)
06/02/2012 01:30 -10,1 C 84 % 1029,0 hPa 0,0 mm 0,0 km/h (0 Bft) NE 45 0 min 0 W/m -12,3 C -10,1 C 0,0 km/h (0 Bft)
06/02/2012 01:40 -10,2 C 84 % 1029,0 hPa 0,0 mm 0,0 km/h (0 Bft) N-NE 22 0 min 0 W/m -12,4 C -10,2 C 0,0 km/h (0 Bft)
06/02/2012 01:50 -10,4 C 84 % 1029,2 hPa 0,0 mm 0,0 km/h (0 Bft) N-NE 22 0 min 0 W/m -12,6 C -10,4 C 0,0 km/h (0 Bft)
06/02/2012 02:02 -10,6 C 84 % 1029,1 hPa 0,0 mm 0,0 km/h (0 Bft) N-NE 22 0 min 0 W/m -12,8 C -10,6 C 0,0 km/h (0 Bft)
06/02/2012 02:10 -10,9 C 84 % 1029,2 hPa 0,0 mm 0,0 km/h (0 Bft) N-NE 22 0 min 0 W/m -13,1 C -10,9 C 0,0 km/h (0 Bft)
06/02/2012 02:20 -11,1 C 84 % 1029,3 hPa 0,0 mm 0,0 km/h (0 Bft) N 360 0 min 0 W/m -13,3 C -11,1 C 0,0 km/h (0 Bft)
06/02/2012 02:30 -11,3 C 85 % 1029,3 hPa 0,0 mm 0,0 km/h (0 Bft) N 360 0 min 0 W/m -13,3 C -11,3 C 0,0 km/h (0 Bft)
06/02/2012 02:40 -11,5 C 85 % 1029,3 hPa 0,0 mm 0,0 km/h (0 Bft) N 360 0 min 0 W/m -13,5 C -11,5 C 0,0 km/h (0 Bft)
06/02/2012 02:50 -11,6 C 85 % 1029,2 hPa 0,0 mm 0,0 km/h (0 Bft) N-NE 22 0 min 0 W/m -13,6 C -11,6 C 0,0 km/h (0 Bft)
06/02/2012 03:00 -11,7 C 85 % 1029,4 hPa 0,0 mm 0,0 km/h (0 Bft) N-NE 22 0 min 0 W/m -13,7 C -11,7 C 0,0 km/h (0 Bft)
06/02/2012 03:10 -11,7 C 85 % 1029,4 hPa 0,0 mm 0,0 km/h (0 Bft) N-NE 22 0 min 0 W/m -13,7 C -11,7 C 0,0 km/h (0 Bft)
06/02/2012 03:20 -11,8 C 85 % 1029,3 hPa 0,0 mm 0,0 km/h (0 Bft) N-NE 22 0 min 0 W/m -13,8 C -11,8 C 0,0 km/h (0 Bft)
06/02/2012 03:30 -11,9 C 85 % 1029,3 hPa 0,0 mm 0,0 km/h (0 Bft) N-NE 22 0 min 0 W/m -13,9 C -11,9 C 0,0 km/h (0 Bft)
06/02/2012 03:40 -12,1 C 85 % 1029,3 hPa 0,0 mm 0,0 km/h (0 Bft) N-NE 22 0 min 0 W/m -14,1 C -12,1 C 0,0 km/h (0 Bft)
06/02/2012 03:50 -12,1 C 85 % 1029,3 hPa 0,0 mm 0,0 km/h (0 Bft) N 360 0 min 0 W/m -14,1 C -12,1 C 0,0 km/h (0 Bft)
06/02/2012 04:00 -12,1 C 86 % 1029,2 hPa 0,0 mm 0,0 km/h (0 Bft) N 360 0 min 0 W/m -13,9 C -12,1 C 0,0 km/h (0 Bft)
06/02/2012 04:10 -12,1 C 86 % 1029,2 hPa 0,0 mm 0,0 km/h (0 Bft) N 360 0 min 0 W/m -13,9 C -12,1 C 0,0 km/h (0 Bft)
06/02/2012 04:20 -12,0 C 86 % 1029,1 hPa 0,0 mm 0,0 km/h (0 Bft) N 360 0 min 0 W/m -13,9 C -12,0 C 0,0 km/h (0 Bft)
06/02/2012 04:30 -11,8 C 87 % 1029,0 hPa 0,0 mm 0,0 km/h (0 Bft) N 360 0 min 0 W/m -13,5 C -11,8 C 0,0 km/h (0 Bft)
06/02/2012 04:40 -11,9 C 86 % 1029,0 hPa 0,0 mm 0,0 km/h (0 Bft) N 360 0 min 0 W/m -13,8 C -11,9 C 0,0 km/h (0 Bft)
06/02/2012 04:50 -12,0 C 86 % 1029,1 hPa 0,0 mm 0,0 km/h (0 Bft) N 360 0 min 0 W/m -13,9 C -12,0 C 0,0 km/h (0 Bft)
06/02/2012 05:00 -12,2 C 86 % 1029,0 hPa 0,0 mm 0,0 km/h (0 Bft) N 360 0 min 0 W/m -14,0 C -12,2 C 0,0 km/h (0 Bft)
06/02/2012 05:10 -12,3 C 86 % 1029,1 hPa 0,0 mm 0,0 km/h (0 Bft) N-NE 22 0 min 0 W/m -14,1 C -12,3 C 0,0 km/h (0 Bft)
06/02/2012 05:20 -12,6 C 86 % 1029,1 hPa 0,0 mm 0,0 km/h (0 Bft) NE 45 0 min 0 W/m -14,4 C -12,6 C 0,0 km/h (0 Bft)
06/02/2012 05:30 -12,9 C 86 % 1029,2 hPa 0,0 mm 0,0 km/h (0 Bft) E 90 0 min 0 W/m -14,7 C -12,9 C 0,0 km/h (0 Bft)
06/02/2012 05:40 -13,2 C 85 % 1029,1 hPa 0,0 mm 0,0 km/h (0 Bft) E 90 0 min 0 W/m -15,2 C -13,2 C 0,0 km/h (0 Bft)
06/02/2012 05:50 -13,4 C 85 % 1029,1 hPa 0,0 mm 0,0 km/h (0 Bft) E 90 0 min 0 W/m -15,4 C -13,4 C 0,0 km/h (0 Bft)
06/02/2012 06:00 -13,7 C 85 % 1028,9 hPa 0,0 mm 0,0 km/h (0 Bft) S-SO 202 0 min 0 W/m -15,7 C -13,7 C 0,0 km/h (0 Bft)
06/02/2012 06:10 -14,0 C 85 % 1029,1 hPa 0,0 mm 0,0 km/h (0 Bft) E-NE 67 0 min 0 W/m -16,0 C -14,0 C 0,0 km/h (0 Bft)
06/02/2012 06:20 -14,2 C 85 % 1029,2 hPa 0,0 mm 0,0 km/h (0 Bft) NE 45 0 min 0 W/m -16,2 C -14,2 C 0,0 km/h (0 Bft)
06/02/2012 06:30 -14,6 C 85 % 1029,3 hPa 0,0 mm 0,0 km/h (0 Bft) E 90 0 min 0 W/m -16,5 C -14,6 C 0,0 km/h (0 Bft)
06/02/2012 06:40 -14,9 C 85 % 1029,4 hPa 0,0 mm 0,0 km/h (0 Bft) E 90 0 min 0 W/m -16,8 C -14,9 C 0,0 km/h (0 Bft)
06/02/2012 06:50 -15,1 C 85 % 1029,4 hPa 0,0 mm 0,0 km/h (0 Bft) E 90 0 min 0 W/m -17,0 C -15,1 C 0,0 km/h (0 Bft)
06/02/2012 07:00 -15,3 C 85 % 1029,5 hPa 0,0 mm 0,0 km/h (0 Bft) E 90 0 min 0 W/m -17,2 C -15,3 C 0,0 km/h (0 Bft)
06/02/2012 07:10 -17,4 C 85 % 1029,6 hPa 0,0 mm 1,8 km/h (1 Bft) E 90 0 min 0 W/m -19,3 C -17,4 C 3,6 km/h (1 Bft)
06/02/2012 07:20 -15,4 C 86 % 1029,6 hPa 0,0 mm 0,0 km/h (0 Bft) SE 135 0 min 0 W/m -17,2 C -15,4 C 0,0 km/h (0 Bft)
06/02/2012 07:30 -15,2 C 86 % 1029,4 hPa 0,0 mm 0,0 km/h (0 Bft) S-SE 157 0 min 0 W/m -17,0 C -15,2 C 0,0 km/h (0 Bft)
06/02/2012 07:40 -15,2 C 86 % 1029,5 hPa 0,0 mm 0,0 km/h (0 Bft) E 90 0 min 0 W/m -17,0 C -15,2 C 0,0 km/h (0 Bft)
06/02/2012 07:50 -14,9 C 86 % 1029,4 hPa 0,0 mm 0,0 km/h (0 Bft) E 90 0 min 0 W/m -16,7 C -14,9 C 0,0 km/h (0 Bft)
06/02/2012 08:00 -14,5 C 86 % 1029,4 hPa 0,0 mm 0,0 km/h (0 Bft) S-SE 157 0 min 0 W/m -16,3 C -14,5 C 0,0 km/h (0 Bft)
06/02/2012 08:10 -14,2 C 86 % 1029,3 hPa 0,0 mm 0,0 km/h (0 Bft) E-SE 112 0 min 0 W/m -16,0 C -14,2 C 0,0 km/h (0 Bft)
06/02/2012 08:20 -13,8 C 86 % 1029,5 hPa 0,0 mm 0,0 km/h (0 Bft) E 90 0 min 0 W/m -15,6 C -13,8 C 0,0 km/h (0 Bft)
06/02/2012 08:30 -13,8 C 86 % 1029,5 hPa 0,0 mm 0,0 km/h (0 Bft) SE 135 2 min 0 W/m -15,6 C -13,8 C 0,0 km/h (0 Bft)
06/02/2012 08:40 -13,7 C 86 % 1029,8 hPa 0,0 mm 0,0 km/h (0 Bft) SE 135 2 min 0 W/m -15,5 C -13,7 C 0,0 km/h (0 Bft)
06/02/2012 08:50 -13,5 C 87 % 1029,8 hPa 0,0 mm 0,0 km/h (0 Bft) S-SE 157 2 min 0 W/m -15,2 C -13,5 C 0,0 km/h (0 Bft)
06/02/2012 09:00 -13,4 C 87 % 1029,8 hPa 0,0 mm 0,0 km/h (0 Bft) S-SE 157 2 min 0 W/m -15,1 C -13,4 C 0,0 km/h (0 Bft)
06/02/2012 09:10 -13,2 C 87 % 1029,8 hPa 0,0 mm 0,0 km/h (0 Bft) S-SE 157 2 min 0 W/m -14,9 C -13,2 C 0,0 km/h (0 Bft)
06/02/2012 09:20 -13,1 C 87 % 1030,1 hPa 0,0 mm 0,0 km/h (0 Bft) E-SE 112 2 min 0 W/m -14,8 C -13,1 C 0,0 km/h (0 Bft)
06/02/2012 09:30 -12,9 C 87 % 1030,1 hPa 0,0 mm 0,0 km/h (0 Bft) S-SO 202 2 min 0 W/m -14,6 C -12,9 C 0,0 km/h (0 Bft)
06/02/2012 09:40 -12,6 C 87 % 1030,1 hPa 0,0 mm 0,0 km/h (0 Bft) S 180 2 min 0 W/m -14,3 C -12,6 C 0,0 km/h (0 Bft)
06/02/2012 09:50 -12,2 C 87 % 1030,0 hPa 0,0 mm 0,0 km/h (0 Bft) S-SE 157 2 min 0 W/m -13,9 C -12,2 C 0,0 km/h (0 Bft)
06/02/2012 10:00 -11,8 C 87 % 1029,9 hPa 0,0 mm 0,0 km/h (0 Bft) S-SO 202 2 min 0 W/m -13,5 C -11,8 C 0,0 km/h (0 Bft)
06/02/2012 10:10 -11,5 C 87 % 1030,1 hPa 0,0 mm 0,0 km/h (0 Bft) E 90 2 min 0 W/m -13,2 C -11,5 C 0,0 km/h (0 Bft)
06/02/2012 10:20 -11,2 C 87 % 1029,8 hPa 0,0 mm 2,2 km/h (1 Bft) S 180 2 min 0 W/m -12,9 C -11,2 C 4,3 km/h (1 Bft)
06/02/2012 10:30 -10,9 C 87 % 1029,8 hPa 0,0 mm 0,0 km/h (0 Bft) E-NE 67 2 min 0 W/m -12,6 C -10,9 C 0,0 km/h (0 Bft)
06/02/2012 10:40 -10,5 C 88 % 1029,9 hPa 0,0 mm 3,2 km/h (1 Bft) NO 315 2 min 0 W/m -12,1 C -10,5 C 4,3 km/h (1 Bft)
06/02/2012 10:50 -9,7 C 89 % 1030,2 hPa 0,0 mm 0,0 km/h (0 Bft) N-NE 22 2 min 0 W/m -11,2 C -9,7 C 0,0 km/h (0 Bft)
06/02/2012 11:00 -8,6 C 88 % 1030,3 hPa 0,0 mm 0,0 km/h (0 Bft) E-NE 67 2 min 0 W/m -10,2 C -8,6 C 0,0 km/h (0 Bft)
06/02/2012 11:10 -7,2 C 88 % 1030,5 hPa 0,0 mm 0,0 km/h (0 Bft) NE 45 2 min 0 W/m -8,8 C -7,2 C 0,0 km/h (0 Bft)
06/02/2012 11:20 -6,7 C 86 % 1030,8 hPa 0,0 mm 0,0 km/h (0 Bft) N-NE 22 2 min 0 W/m -8,6 C -6,7 C 2,9 km/h (1 Bft)
06/02/2012 11:30 -6,0 C 86 % 1031,0 hPa 0,0 mm 0,0 km/h (0 Bft) NE 45 2 min 0 W/m -8,0 C -6,0 C 0,0 km/h (0 Bft)
06/02/2012 11:40 -5,1 C 85 % 1031,0 hPa 0,0 mm 1,1 km/h (1 Bft) N 360 2 min 0 W/m -7,2 C -5,1 C 4,3 km/h (1 Bft)
06/02/2012 11:50 -4,2 C 84 % 1031,0 hPa 0,0 mm 0,0 km/h (0 Bft) N 360 2 min 0 W/m -6,5 C -4,2 C 0,0 km/h (0 Bft)
06/02/2012 12:00 -3,3 C 82 % 1031,1 hPa 0,0 mm 0,0 km/h (0 Bft) N-NE 22 2 min 0 W/m -5,9 C -3,3 C 0,0 km/h (0 Bft)
06/02/2012 12:10 -2,7 C 80 % 1031,0 hPa 0,0 mm 0,0 km/h (0 Bft) N 360 2 min 0 W/m -5,7 C -2,7 C 0,0 km/h (0 Bft)
06/02/2012 12:20 -2,2 C 77 % 1030,8 hPa 0,0 mm 2,2 km/h (1 Bft) NE 45 2 min 0 W/m -5,7 C -2,2 C 3,2 km/h (1 Bft)
06/02/2012 12:30 -1,7 C 75 % 1030,9 hPa 0,0 mm 0,4 km/h (0 Bft) N-NE 22 2 min 0 W/m -5,5 C -1,7 C 0,4 km/h (0 Bft)
06/02/2012 12:40 -1,2 C 74 % 1031,0 hPa 0,1 mm 0,4 km/h (0 Bft) N 360 2 min 0 W/m -5,2 C -1,2 C 3,2 km/h (1 Bft)
06/02/2012 12:50 -0,6 C 72 % 1031,1 hPa 0,0 mm 1,1 km/h (1 Bft) NE 45 2 min 0 W/m -5,0 C -0,6 C 3,6 km/h (1 Bft)
06/02/2012 13:00 -0,6 C 69 % 1031,0 hPa 0,1 mm 5,4 km/h (2 Bft) NE 45 2 min 0 W/m -5,6 C -2,5 C 7,9 km/h (2 Bft)
06/02/2012 13:10 -1,4 C 68 % 1030,9 hPa 0,1 mm 7,2 km/h (2 Bft) N-NE 22 2 min 0 W/m -6,5 C -4,1 C 9,0 km/h (2 Bft)
06/02/2012 13:20 -2,0 C 67 % 1030,5 hPa 0,0 mm 0,7 km/h (0 Bft) NE 45 2 min 0 W/m -7,3 C -2,0 C 3,2 km/h (1 Bft)
06/02/2012 13:30 -2,1 C 69 % 1029,7 hPa 0,0 mm 0,0 km/h (0 Bft) NE 45 2 min 0 W/m -7,0 C -2,1 C 0,0 km/h (0 Bft)
06/02/2012 13:40 -1,8 C 67 % 1030,1 hPa 0,0 mm 4,3 km/h (1 Bft) N-NE 22 2 min 0 W/m -7,1 C -1,8 C 7,6 km/h (2 Bft)
06/02/2012 13:50 -1,9 C 67 % 1030,1 hPa 0,0 mm 1,1 km/h (1 Bft) N-NE 22 2 min 0 W/m -7,2 C -1,9 C 4,3 km/h (1 Bft)
06/02/2012 14:00 -1,4 C 68 % 1030,2 hPa 0,1 mm 0,0 km/h (0 Bft) NE 45 2 min 0 W/m -6,5 C -1,4 C 0,0 km/h (0 Bft)
06/02/2012 14:10 -0,8 C 66 % 1029,9 hPa 0,0 mm 4,0 km/h (1 Bft) N-NE 22 2 min 0 W/m -6,3 C -0,8 C 7,6 km/h (2 Bft)
06/02/2012 14:20 -0,7 C 64 % 1029,9 hPa 0,0 mm 5,0 km/h (1 Bft) N 360 2 min 0 W/m -6,6 C -2,4 C 7,2 km/h (2 Bft)
06/02/2012 14:30 -0,6 C 64 % 1029,8 hPa 0,1 mm 1,1 km/h (1 Bft) N-NE 22 2 min 0 W/m -6,5 C -0,6 C 3,2 km/h (1 Bft)
06/02/2012 14:40 -0,8 C 62 % 1029,7 hPa 0,0 mm 2,5 km/h (1 Bft) N-NE 22 2 min 0 W/m -7,1 C -0,8 C 4,3 km/h (1 Bft)
06/02/2012 14:50 -1,0 C 63 % 1029,4 hPa 0,0 mm 0,0 km/h (0 Bft) N 360 2 min 0 W/m -7,1 C -1,0 C 0,0 km/h (0 Bft)
06/02/2012 15:00 -0,9 C 62 % 1029,5 hPa 0,0 mm 2,2 km/h (1 Bft) N 360 2 min 0 W/m -7,2 C -0,9 C 4,0 km/h (1 Bft)
06/02/2012 15:10 -1,1 C 62 % 1029,3 hPa 0,0 mm 0,7 km/h (0 Bft) NE 45 2 min 0 W/m -7,4 C -1,1 C 3,6 km/h (1 Bft)
06/02/2012 15:20 -1,4 C 62 % 1029,3 hPa 0,0 mm 0,0 km/h (0 Bft) N-NO 337 2 min 0 W/m -7,7 C -1,4 C 0,0 km/h (0 Bft)
06/02/2012 15:30 -1,4 C 62 % 1029,3 hPa 0,1 mm 2,5 km/h (1 Bft) N-NO 337 2 min 0 W/m -7,7 C -1,4 C 4,0 km/h (1 Bft)
06/02/2012 15:40 -1,7 C 62 % 1029,3 hPa 0,0 mm 1,4 km/h (1 Bft) N-NE 22 2 min 0 W/m -8,0 C -1,7 C 4,3 km/h (1 Bft)
06/02/2012 15:50 -1,8 C 61 % 1029,2 hPa 0,0 mm 2,9 km/h (1 Bft) N 360 2 min 0 W/m -8,3 C -1,8 C 6,5 km/h (2 Bft)
06/02/2012 16:00 -2,1 C 61 % 1029,3 hPa 0,0 mm 1,1 km/h (1 Bft) E-NE 67 2 min 0 W/m -8,6 C -2,1 C 6,1 km/h (2 Bft)
06/02/2012 16:10 -2,2 C 62 % 1029,4 hPa 0,0 mm 0,7 km/h (0 Bft) NE 45 2 min 0 W/m -8,5 C -2,2 C 0,7 km/h (0 Bft)
06/02/2012 16:20 -2,2 C 62 % 1029,5 hPa 0,0 mm 4,3 km/h (1 Bft) N 360 2 min 0 W/m -8,5 C -2,2 C 7,6 km/h (2 Bft)
06/02/2012 16:30 -2,5 C 62 % 1029,3 hPa 0,0 mm 1,1 km/h (1 Bft) N-NE 22 2 min 0 W/m -8,8 C -2,5 C 6,5 km/h (2 Bft)
06/02/2012 16:40 -2,7 C 62 % 1029,3 hPa 0,0 mm 2,9 km/h (1 Bft) N 360 2 min 0 W/m -8,9 C -2,7 C 6,8 km/h (2 Bft)
06/02/2012 16:50 -3,0 C 63 % 1029,3 hPa 0,0 mm 0,4 km/h (0 Bft) N 360 2 min 0 W/m -9,0 C -3,0 C 0,4 km/h (0 Bft)
06/02/2012 17:00 -3,2 C 63 % 1029,2 hPa 0,0 mm 3,2 km/h (1 Bft) N-NE 22 2 min 0 W/m -9,2 C -3,2 C 3,2 km/h (1 Bft)
06/02/2012 17:10 -3,2 C 64 % 1029,3 hPa 0,0 mm 0,0 km/h (0 Bft) N-NO 337 2 min 0 W/m -9,0 C -3,2 C 0,0 km/h (0 Bft)
06/02/2012 17:20 -3,2 C 65 % 1029,2 hPa 0,0 mm 0,0 km/h (0 Bft) N-NE 22 2 min 0 W/m -8,8 C -3,2 C 0,0 km/h (0 Bft)
06/02/2012 17:30 -3,4 C 66 % 1029,3 hPa 0,0 mm 0,0 km/h (0 Bft) N-NE 22 2 min 0 W/m -8,8 C -3,4 C 0,0 km/h (0 Bft)
06/02/2012 17:40 -3,6 C 66 % 1029,3 hPa 0,0 mm 0,0 km/h (0 Bft) N-NE 22 2 min 0 W/m -9,0 C -3,6 C 0,0 km/h (0 Bft)
06/02/2012 17:50 -3,8 C 67 % 1029,3 hPa 0,0 mm 0,0 km/h (0 Bft) N 360 2 min 0 W/m -9,0 C -3,8 C 0,0 km/h (0 Bft)
06/02/2012 18:00 -4,2 C 67 % 1029,4 hPa 0,0 mm 0,0 km/h (0 Bft) N 360 0 min 0 W/m -9,4 C -4,2 C 0,0 km/h (0 Bft)
06/02/2012 18:10 -4,6 C 67 % 1029,5 hPa 0,0 mm 0,0 km/h (0 Bft) N 360 0 min 0 W/m -9,8 C -4,6 C 0,0 km/h (0 Bft)
06/02/2012 18:20 -5,1 C 68 % 1029,6 hPa 0,0 mm 0,0 km/h (0 Bft) N 360 0 min 0 W/m -10,1 C -5,1 C 0,0 km/h (0 Bft)
06/02/2012 18:30 -5,4 C 69 % 1029,6 hPa 0,0 mm 0,0 km/h (0 Bft) N 360 0 min 0 W/m -10,2 C -5,4 C 0,0 km/h (0 Bft)
06/02/2012 18:40 -5,7 C 69 % 1029,5 hPa 0,0 mm 0,0 km/h (0 Bft) N 360 0 min 0 W/m -10,5 C -5,7 C 0,0 km/h (0 Bft)
06/02/2012 18:50 -6,2 C 69 % 1029,5 hPa 0,0 mm 0,0 km/h (0 Bft) N 360 0 min 0 W/m -10,9 C -6,2 C 0,0 km/h (0 Bft)
06/02/2012 19:00 -6,6 C 70 % 1029,5 hPa 0,0 mm 0,0 km/h (0 Bft) N 360 0 min 0 W/m -11,1 C -6,6 C 0,0 km/h (0 Bft)
06/02/2012 19:10 -6,9 C 71 % 1029,5 hPa 0,0 mm 0,0 km/h (0 Bft) N 360 0 min 0 W/m -11,2 C -6,9 C 0,0 km/h (0 Bft)
06/02/2012 19:20 -7,3 C 71 % 1029,5 hPa 0,0 mm 0,0 km/h (0 Bft) N 360 0 min 0 W/m -11,6 C -7,3 C 0,0 km/h (0 Bft)
06/02/2012 19:30 -7,7 C 72 % 1029,7 hPa 0,0 mm 0,0 km/h (0 Bft) N 360 0 min 0 W/m -11,8 C -7,7 C 0,0 km/h (0 Bft)
06/02/2012 19:40 -8,0 C 72 % 1029,7 hPa 0,0 mm 0,0 km/h (0 Bft) N-NO 337 0 min 0 W/m -12,1 C -8,0 C 0,0 km/h (0 Bft)
06/02/2012 19:50 -8,2 C 73 % 1029,7 hPa 0,0 mm 0,0 km/h (0 Bft) N-NO 337 0 min 0 W/m -12,2 C -8,2 C 0,0 km/h (0 Bft)
06/02/2012 20:00 -8,5 C 74 % 1029,7 hPa 0,0 mm 0,0 km/h (0 Bft) N-NO 337 0 min 0 W/m -12,3 C -8,5 C 0,0 km/h (0 Bft)
06/02/2012 20:10 -8,5 C 75 % 1029,8 hPa 0,0 mm 0,0 km/h (0 Bft) N-NE 22 0 min 0 W/m -12,1 C -8,5 C 0,0 km/h (0 Bft)
06/02/2012 20:20 -8,4 C 75 % 1029,7 hPa 0,0 mm 0,0 km/h (0 Bft) N 360 0 min 0 W/m -12,0 C -8,4 C 0,0 km/h (0 Bft)
06/02/2012 20:30 -8,4 C 75 % 1029,8 hPa 0,0 mm 0,0 km/h (0 Bft) N-NO 337 0 min 0 W/m -12,0 C -8,4 C 0,0 km/h (0 Bft)
06/02/2012 20:40 -8,5 C 76 % 1029,7 hPa 0,0 mm 0,0 km/h (0 Bft) N-NE 22 0 min 0 W/m -12,0 C -8,5 C 0,0 km/h (0 Bft)
06/02/2012 20:50 -8,7 C 76 % 1029,6 hPa 0,0 mm 0,0 km/h (0 Bft) N-NE 22 0 min 0 W/m -12,1 C -8,7 C 0,0 km/h (0 Bft)
06/02/2012 21:00 -8,8 C 76 % 1029,5 hPa 0,0 mm 0,0 km/h (0 Bft) NE 45 0 min 0 W/m -12,2 C -8,8 C 0,0 km/h (0 Bft)
06/02/2012 21:10 -8,6 C 78 % 1029,4 hPa 0,0 mm 0,0 km/h (0 Bft) N 360 0 min 0 W/m -11,7 C -8,6 C 0,0 km/h (0 Bft)
06/02/2012 21:20 -8,5 C 78 % 1029,5 hPa 0,0 mm 0,0 km/h (0 Bft) NO 315 0 min 0 W/m -11,6 C -8,5 C 0,0 km/h (0 Bft)
06/02/2012 21:30 -8,4 C 78 % 1029,4 hPa 0,0 mm 0,0 km/h (0 Bft) NE 45 0 min 0 W/m -11,5 C -8,4 C 0,0 km/h (0 Bft)
06/02/2012 21:40 -8,3 C 79 % 1029,4 hPa 0,0 mm 0,0 km/h (0 Bft) NE 45 0 min 0 W/m -11,3 C -8,3 C 0,0 km/h (0 Bft)
06/02/2012 21:50 -8,2 C 79 % 1029,6 hPa 0,0 mm 0,0 km/h (0 Bft) N-NE 22 0 min 0 W/m -11,2 C -8,2 C 0,0 km/h (0 Bft)
06/02/2012 22:00 -8,1 C 80 % 1029,6 hPa 0,0 mm 0,0 km/h (0 Bft) N-NO 337 0 min 0 W/m -10,9 C -8,1 C 0,0 km/h (0 Bft)
06/02/2012 22:10 -7,7 C 80 % 1029,5 hPa 0,0 mm 0,4 km/h (0 Bft) N-NE 22 0 min 0 W/m -10,5 C -7,7 C 3,6 km/h (1 Bft)
06/02/2012 22:20 -7,5 C 80 % 1029,4 hPa 0,0 mm 0,0 km/h (0 Bft) N-NO 337 0 min 0 W/m -10,3 C -7,5 C 0,0 km/h (0 Bft)
06/02/2012 22:30 -7,2 C 80 % 1029,4 hPa 0,0 mm 0,0 km/h (0 Bft) N 360 0 min 0 W/m -10,0 C -7,2 C 0,0 km/h (0 Bft)
06/02/2012 22:40 -7,1 C 80 % 1029,4 hPa 0,0 mm 0,0 km/h (0 Bft) N 360 0 min 0 W/m -9,9 C -7,1 C 0,0 km/h (0 Bft)
06/02/2012 22:50 -6,8 C 81 % 1029,5 hPa 0,0 mm 1,1 km/h (1 Bft) NE 45 0 min 0 W/m -9,5 C -6,8 C 3,2 km/h (1 Bft)
06/02/2012 23:00 -6,7 C 81 % 1029,4 hPa 0,0 mm 0,0 km/h (0 Bft) N-NE 22 0 min 0 W/m -9,4 C -6,7 C 0,0 km/h (0 Bft)
06/02/2012 23:10 -6,6 C 81 % 1029,3 hPa 0,0 mm 0,0 km/h (0 Bft) N-NO 337 0 min 0 W/m -9,3 C -6,6 C 0,0 km/h (0 Bft)
06/02/2012 23:20 -6,5 C 81 % 1029,4 hPa 0,0 mm 0,0 km/h (0 Bft) N-NE 22 0 min 0 W/m -9,2 C -6,5 C 0,0 km/h (0 Bft)
06/02/2012 23:30 -6,4 C 82 % 1029,2 hPa 0,0 mm 0,0 km/h (0 Bft) N-NE 22 0 min 0 W/m -9,0 C -6,4 C 0,0 km/h (0 Bft)
06/02/2012 23:40 -6,4 C 82 % 1029,4 hPa 0,0 mm 2,2 km/h (1 Bft) N-NE 22 0 min 0 W/m -9,0 C -6,4 C 4,3 km/h (1 Bft)
06/02/2012 23:50 -6,4 C 82 % 1029,4 hPa 0,0 mm 0,0 km/h (0 Bft) N-NE 22 0 min 0 W/m -9,0 C -6,4 C 0,0 km/h (0 Bft)
_ Min-Heure 07:10 16:00 00:10 - 23:50 - - - - 07:10 07:10 23:50
Minimum _ -17,4 C 61 % 1028,6 hPa - 0,0 km/h (0 Bft) - - - - -19,3 C -17,4 C 0,0 km/h (0 Bft)
_ Max-Heure 14:30 10:50 12:50 15:30 13:10 - - 17:50 23:50 12:50 14:30 13:10
Maximum _ -0,6 C 89 % 1031,1 hPa 0,1 mm 7,2 km/h
N-NE (2 Bft)
- - 2 min 0 W/m -5,0 C -0,6 C 9,0 km/h
N-NE (2 Bft)
Moyenne _ -8,2 C 78 % 1029,6 hPa #0,6 mm 0,5 km/h (0 Bft) N-NE - #1:54 h 0 W/m -11,4 C -8,3 C 1,1 km/h (0 Bft)
Saint Bonnet de Bellac- Haute Vienne - France